Shoukeimaruno.3 — JI3587 — position and weather

sailwx.info

Track history (hours):
 
Tides and Currents Weather Stations Pressure Air Temp Water Temp Dewpoint Dewpoint Depression Visibility Wind Speed Wind Dir Waves Ship Positions

Shoukeimaruno.3

Last reported at 2016-Jul-01 15:23 UTC. Time now 2016-Jul-01 17:14 UTC.
Position N 35°10' E 140°27'.

Length 77 m; draft 3.9 m.

Type: Cargo ship. MMSI: 431300325.

Date/timePositionNaut miles runAvg speedWind from/ knotsBaromVisibWave heightAir tempDewpointWater temp
2016-Jul-01 15:23N 35°10' E 140°27'1512.1
2016-Jul-01 14:10N 35°01' E 140°13'812.8
2016-Jul-01 13:33N 34°57' E 140°05'1711.8
2016-Jul-01 12:05N 34°51' E 139°45'17 0.5
2016-Jun-30 04:28N 35°08' E 139°43'1011.0
2016-Jun-30 03:33N 35°18' E 139°44'7 7.0
2016-Jun-30 02:31N 35°24' E 139°40'0 0.0
2016-Jun-30 01:28N 35°24' E 139°40'0 0.0
2016-Jun-30 00:31N 35°24' E 139°40'0 0.0
2016-Jun-29 23:28N 35°24' E 139°40'0 0.4
2016-Jun-29 22:33N 35°24' E 139°40'0 0.4
2016-Jun-29 21:32N 35°24' E 139°40'0 0.0
2016-Jun-29 20:32N 35°23' E 139°40'0 0.0
2016-Jun-29 19:32N 35°23' E 139°40'0 0.0
2016-Jun-29 18:32N 35°23' E 139°40'0 0.0
2016-Jun-29 17:32N 35°23' E 139°40'0 0.0
2016-Jun-29 16:32N 35°23' E 139°40'9 8.8
2016-Jun-29 15:33N 35°16' E 139°46'1110.9
2016-Jun-29 14:33N 35°06' E 139°44'4 0.1
2016-Jun-28 07:07N 35°05' E 139°39'712.0
2016-Jun-28 06:33N 35°10' E 139°45'15 7.2
2016-Jun-28 04:33N 35°24' E 139°40'0 0.0
2016-Jun-28 03:33N 35°24' E 139°40'0 0.0
2016-Jun-28 02:33N 35°24' E 139°40'0 0.0
2016-Jun-28 01:33N 35°24' E 139°40'1 0.9
2016-Jun-28 00:32N 35°23' E 139°40'0 0.1
2016-Jun-27 23:32N 35°23' E 139°40'0 0.0
2016-Jun-27 22:32N 35°23' E 139°40'0 0.1
2016-Jun-27 21:33N 35°23' E 139°40'0 0.1
2016-Jun-27 20:34N 35°23' E 139°40'0 0.1
2016-Jun-27 19:33N 35°23' E 139°40'0 0.0
2016-Jun-27 18:33N 35°23' E 139°40'0 0.0
2016-Jun-27 17:33N 35°23' E 139°40'0 0.0
2016-Jun-27 16:33N 35°23' E 139°40'0 0.0
2016-Jun-27 15:33N 35°23' E 139°40'0 0.0
2016-Jun-27 14:33N 35°23' E 139°40'0 0.1
2016-Jun-27 13:33N 35°23' E 139°40'0 0.1
2016-Jun-27 12:33N 35°23' E 139°40'0 0.0
2016-Jun-27 11:34N 35°23' E 139°40'0 0.0
2016-Jun-27 10:34N 35°23' E 139°40'0 0.0
2016-Jun-27 09:34N 35°23' E 139°40'0 0.0
2016-Jun-27 08:33N 35°23' E 139°40'5 5.1
2016-Jun-27 07:33N 35°28' E 139°39'0 0.0
2016-Jun-27 06:33N 35°28' E 139°39'0 0.0
2016-Jun-27 05:34N 35°28' E 139°39'0 0.0
2016-Jun-27 04:34N 35°28' E 139°39'0 0.0
2016-Jun-27 03:33N 35°28' E 139°39'2 1.7
2016-Jun-27 02:31N 35°27' E 139°40'0 0.0
2016-Jun-27 01:31N 35°27' E 139°40'0 0.0
2016-Jun-27 00:31N 35°27' E 139°40'0 0.0
2016-Jun-26 23:31N 35°27' E 139°40'0 0.0
2016-Jun-26 22:31N 35°27' E 139°40'0 0.0
2016-Jun-26 21:31N 35°27' E 139°40'0 0.0
2016-Jun-26 20:33N 35°27' E 139°40'0 0.0
2016-Jun-26 19:33N 35°27' E 139°40'0 0.0
2016-Jun-26 18:33N 35°27' E 139°40'0 0.0
2016-Jun-26 17:33N 35°27' E 139°40'0 0.0
2016-Jun-26 16:33N 35°27' E 139°40'0 0.0
2016-Jun-26 15:33N 35°27' E 139°40'0 0.0
2016-Jun-26 14:33N 35°27' E 139°40'0 0.0
2016-Jun-26 13:33N 35°27' E 139°40'0 0.0
2016-Jun-26 12:34N 35°27' E 139°40'0 0.0
2016-Jun-26 11:33N 35°27' E 139°40'0 0.0
2016-Jun-26 10:34N 35°27' E 139°40'0 0.0
2016-Jun-26 09:33N 35°27' E 139°40'0 0.0
2016-Jun-26 08:34N 35°27' E 139°40'5 4.7
2016-Jun-26 07:33N 35°23' E 139°43'1211.6
2016-Jun-26 06:33N 35°12' E 139°47'1211.7
2016-Jun-26 05:33N 35°00' E 139°44'16 7.6
2016-Jun-26 03:27N 34°56' E 140°03'29 9.8
2016-Jun-26 00:30N 35°14' E 140°30'13 9.9
2016-Jun-25 23:09N 35°25' E 140°41'6 9.9
2016-Jun-25 22:33N 35°29' E 140°45'  
Track history (hours):
 
Tides and Currents Weather Stations Pressure Air Temp Water Temp Dewpoint Dewpoint Depression Visibility Wind Speed Wind Dir Waves Ship Positions

Shoukeimaruno.3

Last reported at 2016-Jul-01 15:23 UTC. Time now 2016-Jul-01 17:14 UTC.
Position N 35°10' E 140°27'.

Length 77 m; draft 3.9 m.

Type: Cargo ship. MMSI: 431300325.

Date/timePositionNaut miles runAvg speedWind from/ knotsBaromVisibWave heightAir tempDewpointWater temp
2016-Jul-01 15:23N 35°10' E 140°27'1512.1
2016-Jul-01 14:10N 35°01' E 140°13'812.8
2016-Jul-01 13:33N 34°57' E 140°05'1711.8
2016-Jul-01 12:05N 34°51' E 139°45'17 0.5
2016-Jun-30 04:28N 35°08' E 139°43'1011.0
2016-Jun-30 03:33N 35°18' E 139°44'7 7.0
2016-Jun-30 02:31N 35°24' E 139°40'0 0.0
2016-Jun-30 01:28N 35°24' E 139°40'0 0.0
2016-Jun-30 00:31N 35°24' E 139°40'0 0.0
2016-Jun-29 23:28N 35°24' E 139°40'0 0.4
2016-Jun-29 22:33N 35°24' E 139°40'0 0.4
2016-Jun-29 21:32N 35°24' E 139°40'0 0.0
2016-Jun-29 20:32N 35°23' E 139°40'0 0.0
2016-Jun-29 19:32N 35°23' E 139°40'0 0.0
2016-Jun-29 18:32N 35°23' E 139°40'0 0.0
2016-Jun-29 17:32N 35°23' E 139°40'0 0.0
2016-Jun-29 16:32N 35°23' E 139°40'9 8.8
2016-Jun-29 15:33N 35°16' E 139°46'1110.9
2016-Jun-29 14:33N 35°06' E 139°44'4 0.1
2016-Jun-28 07:07N 35°05' E 139°39'712.0
2016-Jun-28 06:33N 35°10' E 139°45'15 7.2
2016-Jun-28 04:33N 35°24' E 139°40'0 0.0
2016-Jun-28 03:33N 35°24' E 139°40'0 0.0
2016-Jun-28 02:33N 35°24' E 139°40'0 0.0
2016-Jun-28 01:33N 35°24' E 139°40'1 0.9
2016-Jun-28 00:32N 35°23' E 139°40'0 0.1
2016-Jun-27 23:32N 35°23' E 139°40'0 0.0
2016-Jun-27 22:32N 35°23' E 139°40'0 0.1
2016-Jun-27 21:33N 35°23' E 139°40'0 0.1
2016-Jun-27 20:34N 35°23' E 139°40'0 0.1
2016-Jun-27 19:33N 35°23' E 139°40'0 0.0
2016-Jun-27 18:33N 35°23' E 139°40'0 0.0
2016-Jun-27 17:33N 35°23' E 139°40'0 0.0
2016-Jun-27 16:33N 35°23' E 139°40'0 0.0
2016-Jun-27 15:33N 35°23' E 139°40'0 0.0
2016-Jun-27 14:33N 35°23' E 139°40'0 0.1
2016-Jun-27 13:33N 35°23' E 139°40'0 0.1
2016-Jun-27 12:33N 35°23' E 139°40'0 0.0
2016-Jun-27 11:34N 35°23' E 139°40'0 0.0
2016-Jun-27 10:34N 35°23' E 139°40'0 0.0
2016-Jun-27 09:34N 35°23' E 139°40'0 0.0
2016-Jun-27 08:33N 35°23' E 139°40'5 5.1
2016-Jun-27 07:33N 35°28' E 139°39'0 0.0
2016-Jun-27 06:33N 35°28' E 139°39'0 0.0
2016-Jun-27 05:34N 35°28' E 139°39'0 0.0
2016-Jun-27 04:34N 35°28' E 139°39'0 0.0
2016-Jun-27 03:33N 35°28' E 139°39'2 1.7
2016-Jun-27 02:31N 35°27' E 139°40'0 0.0
2016-Jun-27 01:31N 35°27' E 139°40'0 0.0
2016-Jun-27 00:31N 35°27' E 139°40'0 0.0
2016-Jun-26 23:31N 35°27' E 139°40'0 0.0
2016-Jun-26 22:31N 35°27' E 139°40'0 0.0
2016-Jun-26 21:31N 35°27' E 139°40'0 0.0
2016-Jun-26 20:33N 35°27' E 139°40'0 0.0
2016-Jun-26 19:33N 35°27' E 139°40'0 0.0
2016-Jun-26 18:33N 35°27' E 139°40'0 0.0
2016-Jun-26 17:33N 35°27' E 139°40'0 0.0
2016-Jun-26 16:33N 35°27' E 139°40'0 0.0
2016-Jun-26 15:33N 35°27' E 139°40'0 0.0
2016-Jun-26 14:33N 35°27' E 139°40'0 0.0
2016-Jun-26 13:33N 35°27' E 139°40'0 0.0
2016-Jun-26 12:34N 35°27' E 139°40'0 0.0
2016-Jun-26 11:33N 35°27' E 139°40'0 0.0
2016-Jun-26 10:34N 35°27' E 139°40'0 0.0
2016-Jun-26 09:33N 35°27' E 139°40'0 0.0
2016-Jun-26 08:34N 35°27' E 139°40'5 4.7
2016-Jun-26 07:33N 35°23' E 139°43'1211.6
2016-Jun-26 06:33N 35°12' E 139°47'1211.7
2016-Jun-26 05:33N 35°00' E 139°44'16 7.6
2016-Jun-26 03:27N 34°56' E 140°03'29 9.8
2016-Jun-26 00:30N 35°14' E 140°30'13 9.9
2016-Jun-25 23:09N 35°25' E 140°41'6 9.9
2016-Jun-25 22:33N 35°29' E 140°45'  

Dump ship's entire track history